sensor_id;sensor_type;location;lat;lon;timestamp;temperature;humidity
51557;DHT22;38766;53.194;5.532;2022-09-09T00:00:56;15.40;99.90
51557;DHT22;38766;53.194;5.532;2022-09-09T00:03:27;15.40;99.90
51557;DHT22;38766;53.194;5.532;2022-09-09T00:06:03;15.40;99.90
51557;DHT22;38766;53.194;5.532;2022-09-09T00:08:38;15.40;99.90
51557;DHT22;38766;53.194;5.532;2022-09-09T00:11:09;15.40;99.90
51557;DHT22;38766;53.194;5.532;2022-09-09T00:13:43;15.40;99.90
51557;DHT22;38766;53.194;5.532;2022-09-09T00:16:20;15.50;99.90
51557;DHT22;38766;53.194;5.532;2022-09-09T00:18:57;15.40;99.90
51557;DHT22;38766;53.194;5.532;2022-09-09T00:21:34;15.40;99.90
51557;DHT22;38766;53.194;5.532;2022-09-09T00:24:14;15.40;99.90
51557;DHT22;38766;53.194;5.532;2022-09-09T00:26:55;15.40;99.90
51557;DHT22;38766;53.194;5.532;2022-09-09T00:29:55;15.40;99.90
51557;DHT22;38766;53.194;5.532;2022-09-09T00:32:20;15.30;99.90
51557;DHT22;38766;53.194;5.532;2022-09-09T00:34:52;15.40;99.90
51557;DHT22;38766;53.194;5.532;2022-09-09T00:37:20;15.40;99.90
51557;DHT22;38766;53.194;5.532;2022-09-09T00:39:48;15.40;99.90
51557;DHT22;38766;53.194;5.532;2022-09-09T00:42:16;15.40;99.90
51557;DHT22;38766;53.194;5.532;2022-09-09T00:44:53;15.40;99.90
51557;DHT22;38766;53.194;5.532;2022-09-09T00:57:32;15.30;99.90
51557;DHT22;38766;53.194;5.532;2022-09-09T01:00:25;15.30;99.90
51557;DHT22;38766;53.194;5.532;2022-09-09T01:05:29;15.30;99.90
51557;DHT22;38766;53.194;5.532;2022-09-09T01:07:58;15.20;99.90
51557;DHT22;38766;53.194;5.532;2022-09-09T01:10:39;15.20;99.90
51557;DHT22;38766;53.194;5.532;2022-09-09T01:13:15;15.20;99.90
51557;DHT22;38766;53.194;5.532;2022-09-09T01:15:44;15.20;99.90
51557;DHT22;38766;53.194;5.532;2022-09-09T01:18:14;15.20;99.90
51557;DHT22;38766;53.194;5.532;2022-09-09T01:26:44;15.20;99.90
51557;DHT22;38766;53.194;5.532;2022-09-09T01:29:17;15.20;99.90
51557;DHT22;38766;53.194;5.532;2022-09-09T01:31:57;15.20;99.90
51557;DHT22;38766;53.194;5.532;2022-09-09T01:34:25;15.20;99.90
51557;DHT22;38766;53.194;5.532;2022-09-09T01:39:36;15.20;99.90
51557;DHT22;38766;53.194;5.532;2022-09-09T01:42:05;15.10;99.90
51557;DHT22;38766;53.194;5.532;2022-09-09T01:44:32;15.10;99.90
51557;DHT22;38766;53.194;5.532;2022-09-09T01:46:58;15.10;99.90
51557;DHT22;38766;53.194;5.532;2022-09-09T01:49:23;15.10;99.90
51557;DHT22;38766;53.194;5.532;2022-09-09T01:51:52;15.00;99.90
51557;DHT22;38766;53.194;5.532;2022-09-09T01:54:19;15.10;99.90
51557;DHT22;38766;53.194;5.532;2022-09-09T01:56:47;15.10;99.90
51557;DHT22;38766;53.194;5.532;2022-09-09T02:02:19;15.10;99.90
51557;DHT22;38766;53.194;5.532;2022-09-09T02:04:55;15.10;99.90
51557;DHT22;38766;53.194;5.532;2022-09-09T02:08:21;15.10;99.90
51557;DHT22;38766;53.194;5.532;2022-09-09T02:10:45;15.10;99.90
51557;DHT22;38766;53.194;5.532;2022-09-09T02:13:12;15.10;99.90
51557;DHT22;38766;53.194;5.532;2022-09-09T02:15:58;15.00;99.90
51557;DHT22;38766;53.194;5.532;2022-09-09T02:18:40;15.10;99.90
51557;DHT22;38766;53.194;5.532;2022-09-09T02:21:08;15.10;99.90
51557;DHT22;38766;53.194;5.532;2022-09-09T02:23:36;15.00;99.90
51557;DHT22;38766;53.194;5.532;2022-09-09T02:26:03;15.10;99.90
51557;DHT22;38766;53.194;5.532;2022-09-09T02:28:31;15.10;99.90
51557;DHT22;38766;53.194;5.532;2022-09-09T02:30:57;15.10;99.90
51557;DHT22;38766;53.194;5.532;2022-09-09T02:33:30;15.10;99.90
51557;DHT22;38766;53.194;5.532;2022-09-09T02:35:58;15.10;99.90
51557;DHT22;38766;53.194;5.532;2022-09-09T02:38:31;15.10;99.90
51557;DHT22;38766;53.194;5.532;2022-09-09T02:40:58;15.10;99.90
51557;DHT22;38766;53.194;5.532;2022-09-09T02:43:24;15.10;99.90
51557;DHT22;38766;53.194;5.532;2022-09-09T02:48:31;15.10;99.90
51557;DHT22;38766;53.194;5.532;2022-09-09T02:51:24;15.10;99.90
51557;DHT22;38766;53.194;5.532;2022-09-09T02:54:09;15.10;99.90
51557;DHT22;38766;53.194;5.532;2022-09-09T02:56:40;15.00;99.90
51557;DHT22;38766;53.194;5.532;2022-09-09T02:59:07;15.00;99.90
51557;DHT22;38766;53.194;5.532;2022-09-09T03:01:33;15.00;99.90
51557;DHT22;38766;53.194;5.532;2022-09-09T03:03:58;15.00;99.90
51557;DHT22;38766;53.194;5.532;2022-09-09T03:06:24;15.00;99.90
51557;DHT22;38766;53.194;5.532;2022-09-09T03:08:50;15.00;99.90
51557;DHT22;38766;53.194;5.532;2022-09-09T03:11:16;15.10;99.90
51557;DHT22;38766;53.194;5.532;2022-09-09T03:13:42;15.10;99.90
51557;DHT22;38766;53.194;5.532;2022-09-09T03:16:07;15.10;99.90
51557;DHT22;38766;53.194;5.532;2022-09-09T03:18:33;15.10;99.90
51557;DHT22;38766;53.194;5.532;2022-09-09T03:21:00;15.10;99.90
51557;DHT22;38766;53.194;5.532;2022-09-09T03:23:26;15.10;99.90
51557;DHT22;38766;53.194;5.532;2022-09-09T03:25:52;15.10;99.90
51557;DHT22;38766;53.194;5.532;2022-09-09T03:28:18;15.10;99.90
51557;DHT22;38766;53.194;5.532;2022-09-09T03:30:43;15.10;99.90
51557;DHT22;38766;53.194;5.532;2022-09-09T03:33:09;15.10;99.90
51557;DHT22;38766;53.194;5.532;2022-09-09T03:35:35;15.20;99.90
51557;DHT22;38766;53.194;5.532;2022-09-09T03:38:01;15.20;99.90
51557;DHT22;38766;53.194;5.532;2022-09-09T03:40:27;15.20;99.90
51557;DHT22;38766;53.194;5.532;2022-09-09T03:42:52;15.20;99.90
51557;DHT22;38766;53.194;5.532;2022-09-09T03:45:18;15.20;99.90
51557;DHT22;38766;53.194;5.532;2022-09-09T03:47:44;15.20;99.90
51557;DHT22;38766;53.194;5.532;2022-09-09T03:50:10;15.20;99.90
51557;DHT22;38766;53.194;5.532;2022-09-09T03:52:40;15.20;99.90
51557;DHT22;38766;53.194;5.532;2022-09-09T03:55:07;15.20;99.90
51557;DHT22;38766;53.194;5.532;2022-09-09T03:57:33;15.20;99.90
51557;DHT22;38766;53.194;5.532;2022-09-09T04:00:04;15.20;99.90
51557;DHT22;38766;53.194;5.532;2022-09-09T04:02:30;15.20;99.90
51557;DHT22;38766;53.194;5.532;2022-09-09T04:04:56;15.20;99.90
51557;DHT22;38766;53.194;5.532;2022-09-09T04:07:21;15.20;99.90
51557;DHT22;38766;53.194;5.532;2022-09-09T04:09:47;15.20;99.90
51557;DHT22;38766;53.194;5.532;2022-09-09T04:12:13;15.20;99.90
51557;DHT22;38766;53.194;5.532;2022-09-09T04:14:39;15.20;99.90
51557;DHT22;38766;53.194;5.532;2022-09-09T04:17:04;15.20;99.90
51557;DHT22;38766;53.194;5.532;2022-09-09T04:19:32;15.20;99.90
51557;DHT22;38766;53.194;5.532;2022-09-09T04:21:58;15.20;99.90
51557;DHT22;38766;53.194;5.532;2022-09-09T04:24:23;15.20;99.90
51557;DHT22;38766;53.194;5.532;2022-09-09T04:26:49;15.20;99.90
51557;DHT22;38766;53.194;5.532;2022-09-09T04:29:15;15.20;99.90
51557;DHT22;38766;53.194;5.532;2022-09-09T04:31:41;15.10;99.90
51557;DHT22;38766;53.194;5.532;2022-09-09T04:34:08;15.20;99.90
51557;DHT22;38766;53.194;5.532;2022-09-09T04:36:34;15.20;99.90
51557;DHT22;38766;53.194;5.532;2022-09-09T04:39:00;15.20;99.90
51557;DHT22;38766;53.194;5.532;2022-09-09T04:41:29;15.20;99.90
51557;DHT22;38766;53.194;5.532;2022-09-09T04:43:56;15.20;99.90
51557;DHT22;38766;53.194;5.532;2022-09-09T04:46:22;15.10;99.90
51557;DHT22;38766;53.194;5.532;2022-09-09T04:48:49;15.10;99.90
51557;DHT22;38766;53.194;5.532;2022-09-09T04:51:15;15.10;99.90
51557;DHT22;38766;53.194;5.532;2022-09-09T04:53:41;15.10;99.90
51557;DHT22;38766;53.194;5.532;2022-09-09T04:56:12;15.10;99.90
51557;DHT22;38766;53.194;5.532;2022-09-09T04:58:38;15.10;99.90
51557;DHT22;38766;53.194;5.532;2022-09-09T05:03:37;15.10;99.90
51557;DHT22;38766;53.194;5.532;2022-09-09T05:06:11;15.00;99.90
51557;DHT22;38766;53.194;5.532;2022-09-09T05:08:38;15.00;99.90
51557;DHT22;38766;53.194;5.532;2022-09-09T05:11:19;15.00;99.90
51557;DHT22;38766;53.194;5.532;2022-09-09T05:13:45;15.00;99.90
51557;DHT22;38766;53.194;5.532;2022-09-09T05:16:12;14.90;99.90
51557;DHT22;38766;53.194;5.532;2022-09-09T05:18:39;14.90;99.90
51557;DHT22;38766;53.194;5.532;2022-09-09T05:21:06;14.90;99.90
51557;DHT22;38766;53.194;5.532;2022-09-09T05:23:33;14.90;99.90
51557;DHT22;38766;53.194;5.532;2022-09-09T05:25:59;14.90;99.90
51557;DHT22;38766;53.194;5.532;2022-09-09T05:28:26;14.80;99.90
51557;DHT22;38766;53.194;5.532;2022-09-09T05:30:59;14.90;99.90
51557;DHT22;38766;53.194;5.532;2022-09-09T05:33:26;14.80;99.90
51557;DHT22;38766;53.194;5.532;2022-09-09T05:35:57;14.80;99.90
51557;DHT22;38766;53.194;5.532;2022-09-09T05:38:22;14.80;99.90
51557;DHT22;38766;53.194;5.532;2022-09-09T05:40:51;14.70;99.90
51557;DHT22;38766;53.194;5.532;2022-09-09T05:43:18;14.70;99.90
51557;DHT22;38766;53.194;5.532;2022-09-09T05:45:46;14.70;99.90
51557;DHT22;38766;53.194;5.532;2022-09-09T05:48:13;14.70;99.90
51557;DHT22;38766;53.194;5.532;2022-09-09T05:50:40;14.70;99.90
51557;DHT22;38766;53.194;5.532;2022-09-09T05:53:06;14.70;99.90
51557;DHT22;38766;53.194;5.532;2022-09-09T05:55:32;14.70;99.90
51557;DHT22;38766;53.194;5.532;2022-09-09T05:57:57;14.70;99.90
51557;DHT22;38766;53.194;5.532;2022-09-09T06:00:23;14.70;99.90
51557;DHT22;38766;53.194;5.532;2022-09-09T06:02:52;14.80;99.90
51557;DHT22;38766;53.194;5.532;2022-09-09T06:05:18;14.80;99.90
51557;DHT22;38766;53.194;5.532;2022-09-09T06:07:44;14.80;99.90
51557;DHT22;38766;53.194;5.532;2022-09-09T06:10:11;14.80;99.90
51557;DHT22;38766;53.194;5.532;2022-09-09T06:12:39;14.80;99.90
51557;DHT22;38766;53.194;5.532;2022-09-09T06:15:05;14.90;99.90
51557;DHT22;38766;53.194;5.532;2022-09-09T06:17:31;14.80;99.90
51557;DHT22;38766;53.194;5.532;2022-09-09T06:19:56;14.90;99.90
51557;DHT22;38766;53.194;5.532;2022-09-09T06:22:22;14.90;99.90
51557;DHT22;38766;53.194;5.532;2022-09-09T06:24:48;14.90;99.90
51557;DHT22;38766;53.194;5.532;2022-09-09T06:27:13;14.90;99.90
51557;DHT22;38766;53.194;5.532;2022-09-09T06:29:39;14.90;99.90
51557;DHT22;38766;53.194;5.532;2022-09-09T06:32:05;14.90;99.90
51557;DHT22;38766;53.194;5.532;2022-09-09T06:34:30;14.90;99.90
51557;DHT22;38766;53.194;5.532;2022-09-09T06:36:56;14.90;99.90
51557;DHT22;38766;53.194;5.532;2022-09-09T06:39:23;15.00;99.90
51557;DHT22;38766;53.194;5.532;2022-09-09T06:41:49;15.00;99.90
51557;DHT22;38766;53.194;5.532;2022-09-09T06:44:18;15.00;99.90
51557;DHT22;38766;53.194;5.532;2022-09-09T06:46:44;15.00;99.90
51557;DHT22;38766;53.194;5.532;2022-09-09T06:49:13;15.10;99.90
51557;DHT22;38766;53.194;5.532;2022-09-09T06:51:39;15.10;99.90
51557;DHT22;38766;53.194;5.532;2022-09-09T06:54:08;15.10;99.90
51557;DHT22;38766;53.194;5.532;2022-09-09T06:56:38;15.20;99.90
51557;DHT22;38766;53.194;5.532;2022-09-09T06:59:06;15.20;99.90
51557;DHT22;38766;53.194;5.532;2022-09-09T07:01:36;15.30;99.90
51557;DHT22;38766;53.194;5.532;2022-09-09T07:04:03;15.30;99.90
51557;DHT22;38766;53.194;5.532;2022-09-09T07:06:31;15.30;99.90
51557;DHT22;38766;53.194;5.532;2022-09-09T07:08:59;15.30;99.90
51557;DHT22;38766;53.194;5.532;2022-09-09T07:11:28;15.40;99.90
51557;DHT22;38766;53.194;5.532;2022-09-09T07:13:55;15.50;99.90
51557;DHT22;38766;53.194;5.532;2022-09-09T07:16:22;15.50;99.90
51557;DHT22;38766;53.194;5.532;2022-09-09T07:18:53;15.60;99.90
51557;DHT22;38766;53.194;5.532;2022-09-09T07:21:23;15.70;99.90
51557;DHT22;38766;53.194;5.532;2022-09-09T07:23:50;15.80;99.90
51557;DHT22;38766;53.194;5.532;2022-09-09T07:26:18;16.00;99.90
51557;DHT22;38766;53.194;5.532;2022-09-09T07:28:45;16.10;99.90
51557;DHT22;38766;53.194;5.532;2022-09-09T07:31:22;16.20;99.90
51557;DHT22;38766;53.194;5.532;2022-09-09T07:33:48;16.40;99.90
51557;DHT22;38766;53.194;5.532;2022-09-09T07:36:17;16.40;99.90
51557;DHT22;38766;53.194;5.532;2022-09-09T07:38:45;16.50;99.90
51557;DHT22;38766;53.194;5.532;2022-09-09T07:41:17;16.60;99.90
51557;DHT22;38766;53.194;5.532;2022-09-09T07:43:44;16.70;99.90
51557;DHT22;38766;53.194;5.532;2022-09-09T07:46:11;16.80;99.90
51557;DHT22;38766;53.194;5.532;2022-09-09T07:48:38;16.80;99.90
51557;DHT22;38766;53.194;5.532;2022-09-09T07:51:08;16.90;99.90
51557;DHT22;38766;53.194;5.532;2022-09-09T07:53:36;17.00;99.90
51557;DHT22;38766;53.194;5.532;2022-09-09T07:56:10;17.00;99.90
51557;DHT22;38766;53.194;5.532;2022-09-09T07:58:37;17.10;99.90
51557;DHT22;38766;53.194;5.532;2022-09-09T08:01:11;17.10;99.90
51557;DHT22;38766;53.194;5.532;2022-09-09T08:03:37;17.20;99.90
51557;DHT22;38766;53.194;5.532;2022-09-09T08:06:05;17.10;99.90
51557;DHT22;38766;53.194;5.532;2022-09-09T08:08:32;17.00;99.90
51557;DHT22;38766;53.194;5.532;2022-09-09T08:11:07;17.00;99.90
51557;DHT22;38766;53.194;5.532;2022-09-09T08:13:35;16.90;99.90
51557;DHT22;38766;53.194;5.532;2022-09-09T08:16:06;16.90;99.90
51557;DHT22;38766;53.194;5.532;2022-09-09T08:18:32;16.90;99.90
51557;DHT22;38766;53.194;5.532;2022-09-09T08:21:04;16.80;99.90
51557;DHT22;38766;53.194;5.532;2022-09-09T08:23:30;16.90;99.90
51557;DHT22;38766;53.194;5.532;2022-09-09T08:26:02;17.00;99.90
51557;DHT22;38766;53.194;5.532;2022-09-09T08:28:28;17.00;99.90
51557;DHT22;38766;53.194;5.532;2022-09-09T08:30:53;16.90;99.90
51557;DHT22;38766;53.194;5.532;2022-09-09T08:33:19;16.90;99.90
51557;DHT22;38766;53.194;5.532;2022-09-09T08:35:51;16.90;99.90
51557;DHT22;38766;53.194;5.532;2022-09-09T08:38:17;16.90;99.90
51557;DHT22;38766;53.194;5.532;2022-09-09T08:40:46;16.90;99.90
51557;DHT22;38766;53.194;5.532;2022-09-09T08:43:15;16.90;99.90
51557;DHT22;38766;53.194;5.532;2022-09-09T08:45:56;16.80;99.90
51557;DHT22;38766;53.194;5.532;2022-09-09T08:48:56;16.80;99.90
51557;DHT22;38766;53.194;5.532;2022-09-09T08:51:27;16.80;99.90
51557;DHT22;38766;53.194;5.532;2022-09-09T08:53:54;16.80;99.90
51557;DHT22;38766;53.194;5.532;2022-09-09T08:56:23;16.80;99.90
51557;DHT22;38766;53.194;5.532;2022-09-09T08:58:52;16.80;99.90
51557;DHT22;38766;53.194;5.532;2022-09-09T09:06:37;16.80;99.90
51557;DHT22;38766;53.194;5.532;2022-09-09T09:09:18;16.80;99.90
51557;DHT22;38766;53.194;5.532;2022-09-09T09:12:16;16.80;99.90
51557;DHT22;38766;53.194;5.532;2022-09-09T09:14:43;16.80;99.90
51557;DHT22;38766;53.194;5.532;2022-09-09T09:17:13;16.80;99.90
51557;DHT22;38766;53.194;5.532;2022-09-09T09:19:41;16.90;99.90
51557;DHT22;38766;53.194;5.532;2022-09-09T09:22:18;16.90;99.90
51557;DHT22;38766;53.194;5.532;2022-09-09T09:24:52;17.10;99.90
51557;DHT22;38766;53.194;5.532;2022-09-09T09:29:58;17.40;99.90
51557;DHT22;38766;53.194;5.532;2022-09-09T09:32:26;17.40;99.90
51557;DHT22;38766;53.194;5.532;2022-09-09T09:34:56;17.50;99.90
51557;DHT22;38766;53.194;5.532;2022-09-09T09:37:28;17.50;99.90
51557;DHT22;38766;53.194;5.532;2022-09-09T09:39:54;17.50;99.90
51557;DHT22;38766;53.194;5.532;2022-09-09T09:42:20;17.60;99.90
51557;DHT22;38766;53.194;5.532;2022-09-09T09:44:46;17.70;99.90
51557;DHT22;38766;53.194;5.532;2022-09-09T09:47:22;17.80;99.90
51557;DHT22;38766;53.194;5.532;2022-09-09T09:49:56;17.80;99.90
51557;DHT22;38766;53.194;5.532;2022-09-09T09:52:26;17.90;99.90
51557;DHT22;38766;53.194;5.532;2022-09-09T09:54:53;18.00;99.90
51557;DHT22;38766;53.194;5.532;2022-09-09T09:57:24;18.10;99.90
51557;DHT22;38766;53.194;5.532;2022-09-09T10:02:40;18.50;99.90
51557;DHT22;38766;53.194;5.532;2022-09-09T10:05:32;18.50;99.90
51557;DHT22;38766;53.194;5.532;2022-09-09T10:13:26;19.00;99.90
51557;DHT22;38766;53.194;5.532;2022-09-09T10:16:10;19.20;99.90
51557;DHT22;38766;53.194;5.532;2022-09-09T10:27:19;19.20;99.90
51557;DHT22;38766;53.194;5.532;2022-09-09T10:30:14;19.10;99.90
51557;DHT22;38766;53.194;5.532;2022-09-09T10:35:35;18.90;99.90
51557;DHT22;38766;53.194;5.532;2022-09-09T10:46:32;18.70;99.90
51557;DHT22;38766;53.194;5.532;2022-09-09T10:56:58;18.70;99.90
51557;DHT22;38766;53.194;5.532;2022-09-09T10:59:36;18.70;99.90
51557;DHT22;38766;53.194;5.532;2022-09-09T11:02:15;18.70;99.90
51557;DHT22;38766;53.194;5.532;2022-09-09T11:05:00;18.60;99.90
51557;DHT22;38766;53.194;5.532;2022-09-09T11:07:37;18.40;99.90
51557;DHT22;38766;53.194;5.532;2022-09-09T11:13:16;18.50;99.90
51557;DHT22;38766;53.194;5.532;2022-09-09T11:15:46;18.60;99.90
51557;DHT22;38766;53.194;5.532;2022-09-09T11:18:20;18.60;99.90
51557;DHT22;38766;53.194;5.532;2022-09-09T11:20:53;18.90;99.90
51557;DHT22;38766;53.194;5.532;2022-09-09T11:23:26;19.00;99.90
51557;DHT22;38766;53.194;5.532;2022-09-09T11:25:58;19.10;99.90
51557;DHT22;38766;53.194;5.532;2022-09-09T11:28:39;19.10;99.90
51557;DHT22;38766;53.194;5.532;2022-09-09T11:31:14;19.10;99.90
51557;DHT22;38766;53.194;5.532;2022-09-09T11:34:11;19.00;99.90
51557;DHT22;38766;53.194;5.532;2022-09-09T11:42:26;19.00;99.90
51557;DHT22;38766;53.194;5.532;2022-09-09T11:44:52;19.10;99.90
51557;DHT22;38766;53.194;5.532;2022-09-09T11:47:29;19.20;99.90
51557;DHT22;38766;53.194;5.532;2022-09-09T11:50:26;19.20;99.90
51557;DHT22;38766;53.194;5.532;2022-09-09T11:53:04;19.20;99.90
51557;DHT22;38766;53.194;5.532;2022-09-09T11:55:33;19.10;99.90
51557;DHT22;38766;53.194;5.532;2022-09-09T11:58:22;19.00;99.90
51557;DHT22;38766;53.194;5.532;2022-09-09T12:00:48;19.00;99.90
51557;DHT22;38766;53.194;5.532;2022-09-09T12:06:41;18.90;99.90
51557;DHT22;38766;53.194;5.532;2022-09-09T12:12:05;18.70;99.90
51557;DHT22;38766;53.194;5.532;2022-09-09T12:17:25;18.60;99.90
51557;DHT22;38766;53.194;5.532;2022-09-09T12:33:50;18.50;99.90
51557;DHT22;38766;53.194;5.532;2022-09-09T12:36:28;18.60;99.90
51557;DHT22;38766;53.194;5.532;2022-09-09T12:38:56;18.60;99.90
51557;DHT22;38766;53.194;5.532;2022-09-09T12:41:27;18.60;99.90
51557;DHT22;38766;53.194;5.532;2022-09-09T12:44:13;18.70;99.90
51557;DHT22;38766;53.194;5.532;2022-09-09T12:46:44;18.60;99.90
51557;DHT22;38766;53.194;5.532;2022-09-09T12:51:51;18.50;99.90
51557;DHT22;38766;53.194;5.532;2022-09-09T12:54:18;18.50;99.90
51557;DHT22;38766;53.194;5.532;2022-09-09T12:56:46;18.40;99.90
51557;DHT22;38766;53.194;5.532;2022-09-09T12:59:43;18.40;99.90
51557;DHT22;38766;53.194;5.532;2022-09-09T13:04:44;18.40;99.90
51557;DHT22;38766;53.194;5.532;2022-09-09T13:07:12;18.40;99.90
51557;DHT22;38766;53.194;5.532;2022-09-09T13:09:39;18.50;99.90
51557;DHT22;38766;53.194;5.532;2022-09-09T13:12:06;18.60;99.90
51557;DHT22;38766;53.194;5.532;2022-09-09T13:14:37;18.70;99.90
51557;DHT22;38766;53.194;5.532;2022-09-09T13:17:05;18.80;99.90
51557;DHT22;38766;53.194;5.532;2022-09-09T13:19:35;18.90;99.90
51557;DHT22;38766;53.194;5.532;2022-09-09T13:22:20;19.00;99.90
51557;DHT22;38766;53.194;5.532;2022-09-09T13:24:46;19.00;99.90
51557;DHT22;38766;53.194;5.532;2022-09-09T13:27:34;19.00;99.90
51557;DHT22;38766;53.194;5.532;2022-09-09T13:30:00;18.90;99.90
51557;DHT22;38766;53.194;5.532;2022-09-09T13:32:27;19.00;99.90
51557;DHT22;38766;53.194;5.532;2022-09-09T13:34:59;19.00;99.90
51557;DHT22;38766;53.194;5.532;2022-09-09T13:37:35;19.00;99.90
51557;DHT22;38766;53.194;5.532;2022-09-09T13:40:03;19.00;99.90
51557;DHT22;38766;53.194;5.532;2022-09-09T13:42:37;18.90;99.90
51557;DHT22;38766;53.194;5.532;2022-09-09T13:45:04;19.00;99.90
51557;DHT22;38766;53.194;5.532;2022-09-09T13:47:33;19.00;99.90
51557;DHT22;38766;53.194;5.532;2022-09-09T13:50:20;19.10;99.90
51557;DHT22;38766;53.194;5.532;2022-09-09T13:52:47;19.10;99.90
51557;DHT22;38766;53.194;5.532;2022-09-09T13:55:13;19.20;99.90
51557;DHT22;38766;53.194;5.532;2022-09-09T13:57:38;19.30;99.90
51557;DHT22;38766;53.194;5.532;2022-09-09T14:00:06;19.40;99.90
51557;DHT22;38766;53.194;5.532;2022-09-09T14:02:34;19.50;99.90
51557;DHT22;38766;53.194;5.532;2022-09-09T14:04:59;19.60;99.90
51557;DHT22;38766;53.194;5.532;2022-09-09T14:07:25;19.60;99.90
51557;DHT22;38766;53.194;5.532;2022-09-09T14:09:50;19.60;99.90
51557;DHT22;38766;53.194;5.532;2022-09-09T14:12:17;19.70;99.90
51557;DHT22;38766;53.194;5.532;2022-09-09T14:14:43;19.70;99.90
51557;DHT22;38766;53.194;5.532;2022-09-09T14:17:09;19.70;99.90
51557;DHT22;38766;53.194;5.532;2022-09-09T14:19:35;19.60;99.90
51557;DHT22;38766;53.194;5.532;2022-09-09T14:22:02;19.60;99.90
51557;DHT22;38766;53.194;5.532;2022-09-09T14:24:28;19.60;99.90
51557;DHT22;38766;53.194;5.532;2022-09-09T14:26:54;19.60;99.90
51557;DHT22;38766;53.194;5.532;2022-09-09T14:29:20;19.60;99.90
51557;DHT22;38766;53.194;5.532;2022-09-09T14:31:46;19.60;99.90
51557;DHT22;38766;53.194;5.532;2022-09-09T14:34:11;19.70;99.90
51557;DHT22;38766;53.194;5.532;2022-09-09T14:36:37;19.60;99.90
51557;DHT22;38766;53.194;5.532;2022-09-09T14:39:03;19.60;99.90
51557;DHT22;38766;53.194;5.532;2022-09-09T14:41:29;19.40;99.90
51557;DHT22;38766;53.194;5.532;2022-09-09T14:43:55;19.40;99.90
51557;DHT22;38766;53.194;5.532;2022-09-09T14:46:21;19.30;99.90
51557;DHT22;38766;53.194;5.532;2022-09-09T14:48:47;19.10;99.90
51557;DHT22;38766;53.194;5.532;2022-09-09T14:51:21;19.00;99.90
51557;DHT22;38766;53.194;5.532;2022-09-09T14:53:48;18.70;99.90
51557;DHT22;38766;53.194;5.532;2022-09-09T14:56:18;18.50;99.90
51557;DHT22;38766;53.194;5.532;2022-09-09T14:58:44;18.40;99.90
51557;DHT22;38766;53.194;5.532;2022-09-09T15:01:12;18.30;99.90
51557;DHT22;38766;53.194;5.532;2022-09-09T15:03:39;18.20;99.90
51557;DHT22;38766;53.194;5.532;2022-09-09T15:06:10;18.20;99.90
51557;DHT22;38766;53.194;5.532;2022-09-09T15:08:37;18.10;99.90
51557;DHT22;38766;53.194;5.532;2022-09-09T15:11:03;18.10;99.90
51557;DHT22;38766;53.194;5.532;2022-09-09T15:13:30;18.10;99.90
51557;DHT22;38766;53.194;5.532;2022-09-09T15:15:55;18.20;99.90
51557;DHT22;38766;53.194;5.532;2022-09-09T15:18:23;18.30;99.90
51557;DHT22;38766;53.194;5.532;2022-09-09T15:20:49;18.40;99.90
51557;DHT22;38766;53.194;5.532;2022-09-09T15:23:15;18.40;99.90
51557;DHT22;38766;53.194;5.532;2022-09-09T15:25:52;18.40;99.90
51557;DHT22;38766;53.194;5.532;2022-09-09T15:28:18;18.50;99.90
51557;DHT22;38766;53.194;5.532;2022-09-09T15:30:44;18.60;99.90
51557;DHT22;38766;53.194;5.532;2022-09-09T15:33:12;18.60;99.90
51557;DHT22;38766;53.194;5.532;2022-09-09T15:35:37;18.70;99.90
51557;DHT22;38766;53.194;5.532;2022-09-09T15:38:03;18.70;99.90
51557;DHT22;38766;53.194;5.532;2022-09-09T15:40:30;18.70;99.90
51557;DHT22;38766;53.194;5.532;2022-09-09T15:42:58;18.80;99.90
51557;DHT22;38766;53.194;5.532;2022-09-09T15:45:23;18.70;99.90
51557;DHT22;38766;53.194;5.532;2022-09-09T15:47:50;18.70;99.90
51557;DHT22;38766;53.194;5.532;2022-09-09T15:50:16;18.70;99.90
51557;DHT22;38766;53.194;5.532;2022-09-09T15:52:41;18.70;99.90
51557;DHT22;38766;53.194;5.532;2022-09-09T15:55:07;18.70;99.90
51557;DHT22;38766;53.194;5.532;2022-09-09T15:57:33;18.60;99.90
51557;DHT22;38766;53.194;5.532;2022-09-09T16:00:01;18.60;99.90
51557;DHT22;38766;53.194;5.532;2022-09-09T16:02:27;18.50;99.90
51557;DHT22;38766;53.194;5.532;2022-09-09T16:04:52;18.40;99.90
51557;DHT22;38766;53.194;5.532;2022-09-09T16:07:18;18.40;99.90
51557;DHT22;38766;53.194;5.532;2022-09-09T16:09:43;18.30;99.90
51557;DHT22;38766;53.194;5.532;2022-09-09T16:12:09;18.20;99.90
51557;DHT22;38766;53.194;5.532;2022-09-09T16:14:35;18.00;99.90
51557;DHT22;38766;53.194;5.532;2022-09-09T16:17:02;17.90;99.90
51557;DHT22;38766;53.194;5.532;2022-09-09T16:19:28;17.80;99.90
51557;DHT22;38766;53.194;5.532;2022-09-09T16:21:53;17.80;99.90
51557;DHT22;38766;53.194;5.532;2022-09-09T16:24:20;17.80;99.90
51557;DHT22;38766;53.194;5.532;2022-09-09T16:26:47;17.80;99.90
51557;DHT22;38766;53.194;5.532;2022-09-09T16:29:15;17.70;99.90
51557;DHT22;38766;53.194;5.532;2022-09-09T16:31:41;17.80;99.90
51557;DHT22;38766;53.194;5.532;2022-09-09T16:34:07;17.60;99.90
51557;DHT22;38766;53.194;5.532;2022-09-09T16:36:35;17.60;99.90
51557;DHT22;38766;53.194;5.532;2022-09-09T16:39:04;17.70;99.90
51557;DHT22;38766;53.194;5.532;2022-09-09T16:41:31;17.70;99.90
51557;DHT22;38766;53.194;5.532;2022-09-09T16:43:59;17.70;99.90
51557;DHT22;38766;53.194;5.532;2022-09-09T16:46:27;17.70;99.90
51557;DHT22;38766;53.194;5.532;2022-09-09T16:48:53;17.70;99.90
51557;DHT22;38766;53.194;5.532;2022-09-09T16:51:23;17.70;99.90
51557;DHT22;38766;53.194;5.532;2022-09-09T16:53:50;17.70;99.90
51557;DHT22;38766;53.194;5.532;2022-09-09T16:56:19;17.70;99.90
51557;DHT22;38766;53.194;5.532;2022-09-09T16:58:53;17.80;99.90
51557;DHT22;38766;53.194;5.532;2022-09-09T17:01:20;17.70;99.90
51557;DHT22;38766;53.194;5.532;2022-09-09T17:03:46;17.70;99.90
51557;DHT22;38766;53.194;5.532;2022-09-09T17:06:14;17.80;99.90
51557;DHT22;38766;53.194;5.532;2022-09-09T17:08:41;17.80;99.90
51557;DHT22;38766;53.194;5.532;2022-09-09T17:11:17;17.80;99.90
51557;DHT22;38766;53.194;5.532;2022-09-09T17:13:44;17.80;99.90
51557;DHT22;38766;53.194;5.532;2022-09-09T17:16:12;17.90;99.90
51557;DHT22;38766;53.194;5.532;2022-09-09T17:18:38;17.80;99.90
51557;DHT22;38766;53.194;5.532;2022-09-09T17:21:09;17.90;99.90
51557;DHT22;38766;53.194;5.532;2022-09-09T17:23:36;17.90;99.90
51557;DHT22;38766;53.194;5.532;2022-09-09T17:26:05;17.80;99.90
51557;DHT22;38766;53.194;5.532;2022-09-09T17:28:33;17.90;99.90
51557;DHT22;38766;53.194;5.532;2022-09-09T17:31:00;17.90;99.90
51557;DHT22;38766;53.194;5.532;2022-09-09T17:33:30;17.80;99.90
51557;DHT22;38766;53.194;5.532;2022-09-09T17:35:59;17.90;99.90